Time;durP1;ratioP1;P1;durP2;ratioP2;P2;SDS_P1;SDS_P2;PMS_P1;PMS_P2;Temp;Humidity;BMP_temperature;BMP_pressure;BME280_temperature;BME280_humidity;BME280_pressure;Samples;Min_cycle;Max_cycle;Signal;HPM_P1;HPM_P2
2023/04/19 00:00:58;;;;;;;16.80;15.00;;;9.80;90.80;;;;;;5011399;28;20532;-69
2023/04/19 00:03:25;;;;;;;17.80;14.60;;;9.80;91.20;;;;;;5011810;28;20868;-71
2023/04/19 00:05:53;;;;;;;15.90;14.20;;;9.80;91.20;;;;;;5005326;28;20838;-69
2023/04/19 00:08:20;;;;;;;18.83;14.00;;;9.80;91.10;;;;;;5009464;28;20825;-69
2023/04/19 00:10:48;;;;;;;17.63;14.00;;;9.80;91.20;;;;;;5010651;28;20793;-70
2023/04/19 00:13:15;;;;;;;16.93;13.97;;;9.80;91.00;;;;;;5011119;28;20445;-71
2023/04/19 00:15:41;;;;;;;18.77;14.23;;;9.80;90.90;;;;;;5012091;28;20458;-71
2023/04/19 00:18:08;;;;;;;18.97;15.00;;;9.80;91.10;;;;;;5009753;28;20453;-70
2023/04/19 00:20:35;;;;;;;16.27;14.20;;;9.80;91.10;;;;;;5009923;28;20488;-70
2023/04/19 00:23:02;;;;;;;17.83;14.47;;;9.80;91.30;;;;;;5004807;28;20445;-70
2023/04/19 00:25:30;;;;;;;17.30;15.13;;;9.70;91.40;;;;;;5010578;28;20535;-70
2023/04/19 00:27:58;;;;;;;18.23;14.27;;;9.80;91.40;;;;;;5011213;28;20472;-70
2023/04/19 00:30:25;;;;;;;18.50;14.23;;;9.70;91.30;;;;;;5010256;28;20460;-69
2023/04/19 00:32:53;;;;;;;15.67;14.00;;;9.70;91.10;;;;;;5010823;28;20464;-71
2023/04/19 00:35:20;;;;;;;18.43;14.57;;;9.70;91.10;;;;;;5011371;28;20452;-69
2023/04/19 00:37:46;;;;;;;16.30;14.60;;;9.60;91.20;;;;;;5011473;28;20458;-70
2023/04/19 00:40:14;;;;;;;19.20;14.87;;;9.70;91.20;;;;;;5010388;28;20488;-70
2023/04/19 00:42:40;;;;;;;18.30;13.87;;;9.70;91.20;;;;;;5010873;28;20534;-69
2023/04/19 00:45:10;;;;;;;17.63;14.23;;;9.70;91.40;;;;;;5011387;28;20453;-69
2023/04/19 00:47:37;;;;;;;18.40;14.90;;;9.70;91.10;;;;;;5011248;28;20452;-69
2023/04/19 00:50:04;;;;;;;15.53;13.43;;;9.70;91.00;;;;;;5011479;28;20479;-70
2023/04/19 00:52:33;;;;;;;19.00;14.80;;;9.60;91.10;;;;;;5009630;28;20487;-70
2023/04/19 00:55:01;;;;;;;15.90;13.87;;;9.50;91.20;;;;;;4991723;28;20453;-70
2023/04/19 00:57:29;;;;;;;18.43;14.33;;;9.50;91.30;;;;;;4992274;28;20458;-70
2023/04/19 00:59:57;;;;;;;19.60;15.20;;;9.60;91.40;;;;;;4991892;28;20484;-71
2023/04/19 01:02:27;;;;;;;20.03;15.23;;;9.60;91.20;;;;;;4997340;28;20476;-68
2023/04/19 01:04:54;;;;;;;17.33;15.53;;;9.50;91.20;;;;;;4991144;28;20973;-69
2023/04/19 01:07:21;;;;;;;18.50;14.77;;;9.50;91.20;;;;;;4997461;28;20482;-69
2023/04/19 01:09:48;;;;;;;19.07;15.50;;;9.50;91.30;;;;;;5011113;28;20454;-70
2023/04/19 01:12:14;;;;;;;19.60;15.50;;;9.50;91.50;;;;;;5010849;28;20839;-70
2023/04/19 01:14:41;;;;;;;19.63;17.10;;;9.50;91.50;;;;;;5010966;28;20458;-71
2023/04/19 01:17:08;;;;;;;18.50;15.30;;;9.40;91.40;;;;;;5011094;28;20500;-69
2023/04/19 01:19:37;;;;;;;19.40;15.10;;;9.40;91.30;;;;;;5010890;28;20859;-69
2023/04/19 01:22:05;;;;;;;20.10;15.53;;;9.40;91.50;;;;;;5009459;28;20505;-68
2023/04/19 01:24:34;;;;;;;17.20;14.50;;;9.40;91.50;;;;;;5006057;28;21023;-69
2023/04/19 01:27:01;;;;;;;15.77;13.93;;;9.40;91.40;;;;;;5010747;28;20457;-69
2023/04/19 01:29:28;;;;;;;22.60;16.33;;;9.30;91.40;;;;;;5010500;28;20543;-70
2023/04/19 01:31:54;;;;;;;18.83;15.13;;;9.30;91.60;;;;;;5010750;28;20462;-70
2023/04/19 01:34:22;;;;;;;20.33;15.50;;;9.30;91.70;;;;;;5009115;28;20462;-70
2023/04/19 01:36:49;;;;;;;20.37;15.13;;;9.30;91.70;;;;;;5004048;28;20458;-71
2023/04/19 01:39:16;;;;;;;20.73;16.00;;;9.30;91.60;;;;;;5010389;28;20462;-70
2023/04/19 01:41:44;;;;;;;21.13;16.40;;;9.30;91.60;;;;;;5000913;28;20472;-70
2023/04/19 01:44:12;;;;;;;20.23;15.00;;;9.40;91.60;;;;;;5010214;28;20450;-69
2023/04/19 01:46:41;;;;;;;18.67;16.27;;;9.40;91.60;;;;;;5007301;28;21127;-70
2023/04/19 01:49:08;;;;;;;20.10;15.47;;;9.40;91.30;;;;;;5008871;28;20524;-69
2023/04/19 01:51:35;;;;;;;22.10;16.10;;;9.30;91.40;;;;;;5011130;28;20461;-70
2023/04/19 01:54:02;;;;;;;19.07;15.63;;;9.40;91.70;;;;;;5010480;28;20816;-70
2023/04/19 01:56:28;;;;;;;20.73;17.13;;;9.40;91.70;;;;;;5008451;28;21000;-70
2023/04/19 01:58:56;;;;;;;22.13;16.60;;;9.40;91.80;;;;;;4991503;28;20442;-70
2023/04/19 02:01:23;;;;;;;19.47;15.83;;;9.30;91.80;;;;;;4991059;28;20478;-70
2023/04/19 02:03:50;;;;;;;21.00;15.53;;;9.30;91.90;;;;;;4991202;28;20511;-71
2023/04/19 02:06:17;;;;;;;16.80;15.00;;;9.30;91.80;;;;;;4991704;28;20454;-71
2023/04/19 02:08:43;;;;;;;16.53;14.73;;;9.30;91.70;;;;;;4991073;28;20472;-70
2023/04/19 02:11:13;;;;;;;17.20;15.20;;;9.30;91.70;;;;;;4994078;28;20470;-70
2023/04/19 02:13:40;;;;;;;20.90;16.50;;;9.30;91.70;;;;;;5010284;28;20569;-68
2023/04/19 02:16:10;;;;;;;17.90;15.30;;;9.30;91.80;;;;;;5010214;28;20450;-69
2023/04/19 02:18:39;;;;;;;20.47;15.60;;;9.30;91.90;;;;;;5010564;28;20452;-68
2023/04/19 02:21:08;;;;;;;20.03;16.13;;;9.20;91.80;;;;;;5009901;28;20543;-70
2023/04/19 02:23:35;;;;;;;17.80;15.33;;;9.30;92.00;;;;;;5009374;28;20445;-69
2023/04/19 02:26:02;;;;;;;20.27;16.13;;;9.20;91.90;;;;;;5000447;28;20469;-70
2023/04/19 02:28:29;;;;;;;17.20;15.07;;;9.20;91.80;;;;;;4989915;28;20442;-71
2023/04/19 02:30:56;;;;;;;20.07;15.43;;;9.20;91.90;;;;;;4989967;28;20569;-70
2023/04/19 02:33:27;;;;;;;18.80;14.73;;;9.20;91.80;;;;;;4990084;28;20458;-70
2023/04/19 02:35:54;;;;;;;20.60;15.80;;;9.20;91.80;;;;;;4989779;28;20462;-70
2023/04/19 02:38:21;;;;;;;18.50;15.13;;;9.20;91.80;;;;;;4990305;28;20451;-69
2023/04/19 02:40:47;;;;;;;17.30;14.80;;;9.20;91.90;;;;;;5002890;28;21222;-71
2023/04/19 02:43:14;;;;;;;19.30;16.10;;;9.10;92.60;;;;;;5009432;28;20826;-70
2023/04/19 02:45:41;;;;;;;18.80;15.63;;;9.10;92.20;;;;;;5009886;28;20449;-69
2023/04/19 02:48:08;;;;;;;20.07;15.97;;;9.10;92.20;;;;;;5009873;28;20456;-69
2023/04/19 02:50:38;;;;;;;19.00;16.13;;;9.20;92.00;;;;;;5010000;28;20496;-68
2023/04/19 02:53:05;;;;;;;18.53;15.93;;;9.20;91.70;;;;;;5009624;28;20455;-70
2023/04/19 02:55:32;;;;;;;21.47;14.97;;;9.20;91.90;;;;;;4991577;28;20518;-69
2023/04/19 02:57:59;;;;;;;20.70;16.53;;;9.10;92.00;;;;;;4990052;28;21005;-70
2023/04/19 03:00:26;;;;;;;19.23;15.00;;;9.10;92.20;;;;;;4989978;28;20486;-70
2023/04/19 03:02:54;;;;;;;20.50;15.97;;;9.10;92.20;;;;;;4989742;28;20985;-69
2023/04/19 03:05:21;;;;;;;22.60;17.43;;;9.10;92.20;;;;;;4990060;28;20736;-68
2023/04/19 03:07:49;;;;;;;22.93;17.70;;;9.10;92.30;;;;;;4995714;28;20454;-70
2023/04/19 03:10:17;;;;;;;20.00;17.33;;;9.00;92.40;;;;;;5004329;28;20447;-69
2023/04/19 03:12:43;;;;;;;21.73;18.13;;;9.00;92.40;;;;;;5008567;28;20465;-70
2023/04/19 03:15:11;;;;;;;20.10;16.67;;;9.00;92.60;;;;;;5004818;28;20484;-69
2023/04/19 03:17:38;;;;;;;22.60;16.80;;;9.00;92.40;;;;;;5010844;28;20445;-69
2023/04/19 03:20:08;;;;;;;20.60;17.27;;;9.00;92.40;;;;;;5012487;28;20903;-70
2023/04/19 03:22:35;;;;;;;25.97;17.97;;;9.00;92.40;;;;;;5012422;28;20483;-70
2023/04/19 03:25:04;;;;;;;24.70;17.80;;;9.00;92.40;;;;;;5013035;28;20548;-69
2023/04/19 03:27:31;;;;;;;21.30;17.53;;;9.00;92.40;;;;;;5013622;28;20457;-69
2023/04/19 03:29:57;;;;;;;21.33;17.07;;;8.90;92.40;;;;;;5013494;28;20986;-70
2023/04/19 03:32:24;;;;;;;20.03;17.00;;;8.90;92.60;;;;;;5013468;28;20465;-69
2023/04/19 03:34:51;;;;;;;22.17;18.10;;;8.90;92.40;;;;;;5013127;28;20494;-70
2023/04/19 03:37:18;;;;;;;21.33;17.40;;;8.90;92.50;;;;;;5001694;28;20450;-69
2023/04/19 03:39:44;;;;;;;24.90;19.50;;;8.90;92.70;;;;;;4992903;28;20462;-69
2023/04/19 03:42:13;;;;;;;21.70;18.33;;;8.80;92.70;;;;;;4992955;28;20500;-70
2023/04/19 03:44:39;;;;;;;21.30;17.43;;;8.90;92.80;;;;;;4994148;28;20456;-71
2023/04/19 03:47:06;;;;;;;22.80;17.20;;;8.80;92.90;;;;;;5004730;28;20467;-70
2023/04/19 03:49:33;;;;;;;20.10;16.30;;;8.80;93.10;;;;;;5010184;28;20449;-70
2023/04/19 03:52:00;;;;;;;22.80;17.53;;;8.70;93.20;;;;;;5010100;28;20476;-69
2023/04/19 03:54:26;;;;;;;21.83;17.33;;;8.60;93.40;;;;;;5012004;28;20454;-69
2023/04/19 03:56:53;;;;;;;21.40;17.30;;;8.50;93.40;;;;;;5011375;28;20537;-70
2023/04/19 03:59:21;;;;;;;25.43;20.00;;;8.50;93.50;;;;;;5012305;28;20445;-69
2023/04/19 04:01:48;;;;;;;23.07;18.83;;;8.40;93.70;;;;;;5012033;28;20543;-68
2023/04/19 04:04:15;;;;;;;26.30;20.43;;;8.30;93.90;;;;;;5011792;28;20457;-69
2023/04/19 04:06:42;;;;;;;26.97;19.97;;;8.20;93.90;;;;;;5012082;28;20454;-70
2023/04/19 04:09:09;;;;;;;24.70;18.77;;;8.10;94.20;;;;;;5012179;28;20460;-71
2023/04/19 04:11:36;;;;;;;24.13;18.80;;;8.00;94.40;;;;;;4997064;28;21098;-70
2023/04/19 04:14:03;;;;;;;27.93;21.70;;;8.00;94.70;;;;;;4991986;28;20458;-70
2023/04/19 04:16:31;;;;;;;25.23;20.30;;;8.00;94.80;;;;;;4992217;28;20946;-71
2023/04/19 04:18:58;;;;;;;26.23;19.97;;;8.00;94.70;;;;;;4992279;28;20446;-70
2023/04/19 04:21:25;;;;;;;24.87;19.13;;;8.00;94.70;;;;;;4991826;28;20483;-70
2023/04/19 04:23:52;;;;;;;27.10;19.13;;;7.90;94.70;;;;;;4991952;28;20546;-70
2023/04/19 04:26:20;;;;;;;24.70;18.80;;;7.90;94.70;;;;;;5010980;28;20457;-70
2023/04/19 04:28:47;;;;;;;23.83;18.27;;;8.00;94.70;;;;;;5011253;28;20456;-70
2023/04/19 04:31:16;;;;;;;24.53;17.20;;;8.00;94.40;;;;;;5011659;28;20467;-73
2023/04/19 04:33:45;;;;;;;26.03;17.50;;;8.00;94.40;;;;;;5011042;28;20460;-70
2023/04/19 04:36:12;;;;;;;22.23;17.73;;;8.00;94.50;;;;;;5011676;28;20439;-73
2023/04/19 04:38:39;;;;;;;23.37;18.67;;;8.00;94.40;;;;;;5007693;28;20480;-71
2023/04/19 04:41:07;;;;;;;23.00;17.60;;;8.00;94.30;;;;;;4991441;28;20538;-69
2023/04/19 04:43:34;;;;;;;25.60;17.03;;;8.00;94.20;;;;;;4991696;28;20458;-69
2023/04/19 04:46:01;;;;;;;22.67;18.20;;;8.00;94.10;;;;;;4991392;28;20541;-68
2023/04/19 04:48:28;;;;;;;21.50;17.80;;;8.10;94.00;;;;;;4991905;28;20441;-69
2023/04/19 04:50:56;;;;;;;26.70;17.10;;;8.10;93.70;;;;;;4991679;28;20459;-68
2023/04/19 04:53:23;;;;;;;26.17;18.87;;;8.20;93.70;;;;;;4999018;28;20456;-67
2023/04/19 04:55:50;;;;;;;22.03;17.30;;;8.20;93.50;;;;;;5011311;28;20481;-69
2023/04/19 04:58:17;;;;;;;20.60;16.43;;;8.20;93.40;;;;;;5011301;28;20451;-69
2023/04/19 05:00:43;;;;;;;21.50;16.77;;;8.30;93.30;;;;;;5010825;28;20476;-68
2023/04/19 05:03:10;;;;;;;21.70;17.73;;;8.30;93.10;;;;;;5010860;28;20453;-70
2023/04/19 05:05:37;;;;;;;20.03;17.00;;;8.40;93.00;;;;;;5011271;28;20479;-69
2023/04/19 05:08:05;;;;;;;23.67;17.60;;;8.40;92.90;;;;;;4999630;28;20458;-70
2023/04/19 05:10:32;;;;;;;24.50;17.03;;;8.50;92.60;;;;;;4991951;28;20509;-69
2023/04/19 05:13:00;;;;;;;23.20;17.67;;;8.50;92.60;;;;;;4991135;28;20453;-69
2023/04/19 05:15:27;;;;;;;22.43;16.50;;;8.50;92.50;;;;;;4991403;28;20453;-70
2023/04/19 05:17:54;;;;;;;27.13;17.87;;;8.60;92.20;;;;;;4991212;28;20524;-68
2023/04/19 05:20:21;;;;;;;21.60;16.93;;;8.60;92.20;;;;;;4991258;28;20816;-68
2023/04/19 05:22:48;;;;;;;22.20;16.80;;;8.60;92.30;;;;;;5006507;28;20489;-69
2023/04/19 05:25:16;;;;;;;21.13;18.17;;;8.60;92.30;;;;;;5010284;28;20447;-68
2023/04/19 05:27:43;;;;;;;18.50;16.37;;;8.60;92.10;;;;;;5010526;28;20793;-68
2023/04/19 05:30:10;;;;;;;21.60;17.00;;;8.60;92.10;;;;;;5004789;28;20468;-69
2023/04/19 05:32:37;;;;;;;23.07;16.30;;;8.70;91.90;;;;;;5008748;28;20478;-68
2023/04/19 05:35:04;;;;;;;21.13;16.20;;;8.70;92.00;;;;;;5008372;28;20448;-67
2023/04/19 05:37:30;;;;;;;20.47;16.53;;;8.70;92.10;;;;;;5010504;28;20439;-67
2023/04/19 05:39:58;;;;;;;20.30;16.90;;;8.70;92.00;;;;;;5009749;28;20468;-68
2023/04/19 05:42:26;;;;;;;28.83;17.63;;;8.70;92.20;;;;;;5009730;28;20573;-67
2023/04/19 05:44:52;;;;;;;20.33;16.47;;;8.70;92.20;;;;;;5010569;28;20445;-71
2023/04/19 05:47:20;;;;;;;29.77;17.00;;;8.70;91.90;;;;;;5010486;28;20463;-68
2023/04/19 05:49:47;;;;;;;21.50;16.40;;;8.70;91.70;;;;;;5005793;28;20455;-67
2023/04/19 05:52:14;;;;;;;20.60;16.20;;;8.80;91.80;;;;;;4992299;28;20529;-68
2023/04/19 05:54:40;;;;;;;21.20;17.67;;;8.80;91.40;;;;;;5004037;28;20958;-67
2023/04/19 05:57:07;;;;;;;21.67;16.83;;;8.90;91.50;;;;;;4997135;28;20450;-69
2023/04/19 05:59:36;;;;;;;22.73;17.60;;;9.00;91.20;;;;;;4990834;28;21049;-68
2023/04/19 06:02:03;;;;;;;19.93;16.60;;;9.10;91.20;;;;;;4995543;28;20478;-68
2023/04/19 06:04:30;;;;;;;17.10;14.77;;;9.10;90.80;;;;;;5009552;28;20514;-69
2023/04/19 06:06:57;;;;;;;19.43;16.60;;;9.20;90.70;;;;;;5009995;28;20454;-69
2023/04/19 06:09:23;;;;;;;16.70;14.47;;;9.30;90.60;;;;;;5009790;28;20952;-68
2023/04/19 06:11:53;;;;;;;19.10;15.20;;;9.50;90.10;;;;;;5008829;28;20543;-69
2023/04/19 06:14:20;;;;;;;18.30;14.77;;;9.50;90.00;;;;;;5009493;28;20453;-69
2023/04/19 06:16:48;;;;;;;16.87;13.37;;;9.60;89.40;;;;;;5007269;28;20451;-69
2023/04/19 06:19:15;;;;;;;18.00;14.17;;;9.70;88.80;;;;;;5001871;28;21259;-69
2023/04/19 06:21:42;;;;;;;17.57;14.83;;;9.70;88.10;;;;;;5006994;28;20489;-69
2023/04/19 06:24:08;;;;;;;19.10;14.47;;;9.70;88.90;;;;;;5001306;28;20445;-69
2023/04/19 06:26:35;;;;;;;18.87;14.30;;;9.70;88.60;;;;;;5000024;28;20968;-71
2023/04/19 06:29:02;;;;;;;16.40;14.30;;;9.70;87.90;;;;;;5003607;28;20544;-69
2023/04/19 06:31:29;;;;;;;19.77;15.57;;;9.80;87.20;;;;;;4993578;28;21056;-70
2023/04/19 06:33:57;;;;;;;14.30;12.80;;;9.90;88.00;;;;;;5004967;28;20455;-70
2023/04/19 06:36:24;;;;;;;19.10;14.53;;;9.90;87.10;;;;;;4998631;28;20454;-69
2023/04/19 06:38:51;;;;;;;18.20;14.10;;;9.80;86.50;;;;;;4997939;28;21063;-69
2023/04/19 06:41:18;;;;;;;18.17;15.70;;;9.90;88.30;;;;;;5005910;28;20488;-68
2023/04/19 06:43:45;;;;;;;18.30;14.37;;;10.00;87.20;;;;;;4999703;28;20463;-69
2023/04/19 06:46:12;;;;;;;17.43;13.97;;;10.00;86.50;;;;;;5006755;28;20525;-69
2023/04/19 06:48:39;;;;;;;17.83;14.00;;;10.10;85.90;;;;;;4999275;28;20451;-69
2023/04/19 06:51:07;;;;;;;18.23;14.77;;;10.10;86.50;;;;;;5004325;28;20461;-70
2023/04/19 06:53:35;;;;;;;17.47;14.67;;;10.10;85.60;;;;;;4995845;28;20456;-69
2023/04/19 06:56:03;;;;;;;17.17;14.80;;;10.20;85.70;;;;;;4994152;28;20482;-70
2023/04/19 06:58:30;;;;;;;17.00;13.97;;;10.30;85.70;;;;;;4994087;28;20712;-70
2023/04/19 07:00:57;;;;;;;17.70;14.67;;;10.50;84.60;;;;;;4993778;28;20461;-70
2023/04/19 07:03:24;;;;;;;18.97;13.80;;;10.60;84.50;;;;;;4992862;28;20450;-70
2023/04/19 07:05:54;;;;;;;16.73;14.40;;;10.70;83.50;;;;;;4993173;28;20813;-70
2023/04/19 07:08:23;;;;;;;16.70;14.50;;;10.60;83.90;;;;;;5007578;28;20953;-70
2023/04/19 07:10:50;;;;;;;18.23;14.10;;;10.60;82.80;;;;;;5013325;28;20454;-70
2023/04/19 07:13:16;;;;;;;16.67;14.73;;;10.70;83.90;;;;;;5012928;28;20846;-70
2023/04/19 07:15:43;;;;;;;15.97;13.00;;;10.60;82.40;;;;;;5013240;28;20450;-69
2023/04/19 07:18:13;;;;;;;20.80;14.93;;;10.60;82.40;;;;;;5013021;28;20448;-70
2023/04/19 07:20:43;;;;;;;16.17;13.27;;;10.60;83.20;;;;;;5013154;28;20589;-70
2023/04/19 07:23:10;;;;;;;17.50;14.63;;;10.80;84.60;;;;;;4993773;28;20892;-70
2023/04/19 07:25:38;;;;;;;14.33;12.83;;;10.90;81.40;;;;;;4993401;28;20511;-71
2023/04/19 07:28:05;;;;;;;18.93;13.80;;;11.00;81.20;;;;;;4993346;28;20464;-71
2023/04/19 07:30:32;;;;;;;17.37;13.10;;;11.20;80.50;;;;;;4993231;28;20463;-71
2023/04/19 07:32:59;;;;;;;14.23;12.83;;;11.40;80.80;;;;;;4992884;28;20452;-70
2023/04/19 07:35:26;;;;;;;16.35;14.55;;;11.60;79.90;;;;;;4995212;28;20530;-71
2023/04/19 07:37:52;;;;;;;16.93;13.63;;;11.80;78.80;;;;;;5012609;28;20199;-71
2023/04/19 07:40:19;;;;;;;15.57;13.90;;;11.90;77.50;;;;;;5012624;28;20458;-71
2023/04/19 07:42:47;;;;;;;13.50;12.07;;;12.10;77.30;;;;;;5012200;28;20862;-71
2023/04/19 07:45:14;;;;;;;13.93;12.40;;;12.20;77.50;;;;;;5012536;28;20452;-72
2023/04/19 07:47:41;;;;;;;12.80;11.60;;;12.60;71.90;;;;;;5012372;28;20544;-71
2023/04/19 07:50:09;;;;;;;13.77;11.13;;;12.40;70.40;;;;;;5005048;28;20973;-72
2023/04/19 07:52:36;;;;;;;13.40;12.00;;;12.30;72.80;;;;;;4992515;28;21063;-71
2023/04/19 07:55:03;;;;;;;12.83;11.40;;;12.10;72.70;;;;;;4993042;28;20461;-71
2023/04/19 07:57:30;;;;;;;13.57;11.50;;;11.90;72.80;;;;;;5009048;28;20975;-71
2023/04/19 07:59:58;;;;;;;12.07;10.77;;;11.90;74.80;;;;;;5011770;28;20508;-71
2023/04/19 08:02:26;;;;;;;13.57;11.85;;;12.00;73.70;;;;;;5011066;28;20459;-71
2023/04/19 08:04:53;;;;;;;12.63;11.30;;;12.20;74.60;;;;;;5011980;28;20277;-71
2023/04/19 08:07:22;;;;;;;12.10;10.90;;;12.50;71.40;;;;;;5012200;28;21000;-71
2023/04/19 08:09:49;;;;;;;11.70;9.70;;;12.40;71.80;;;;;;5011704;28;20448;-71
2023/04/19 08:12:17;;;;;;;11.27;10.07;;;12.80;69.80;;;;;;4992514;28;20467;-71
2023/04/19 08:14:45;;;;;;;9.90;9.00;;;13.00;68.70;;;;;;4992308;28;21051;-70
2023/04/19 08:17:15;;;;;;;10.03;9.03;;;13.00;67.80;;;;;;4992868;28;20460;-72
2023/04/19 08:19:42;;;;;;;10.90;9.80;;;13.20;68.20;;;;;;4992703;28;20515;-71
2023/04/19 08:22:08;;;;;;;11.90;10.03;;;13.40;66.50;;;;;;4992508;28;20496;-71
2023/04/19 08:24:35;;;;;;;10.37;9.37;;;13.70;67.30;;;;;;4992493;28;20476;-71
2023/04/19 08:27:02;;;;;;;13.67;10.23;;;13.70;63.20;;;;;;4996515;28;20453;-71
2023/04/19 08:29:29;;;;;;;11.50;10.40;;;13.80;66.30;;;;;;5011859;28;20459;-70
2023/04/19 08:31:55;;;;;;;11.43;10.33;;;13.80;64.20;;;;;;5012082;28;20458;-71
2023/04/19 08:34:23;;;;;;;10.93;9.60;;;13.60;63.90;;;;;;5011636;28;20442;-72
2023/04/19 08:36:50;;;;;;;11.27;10.17;;;13.70;66.50;;;;;;5012211;28;20448;-71
2023/04/19 08:39:17;;;;;;;10.00;9.00;;;13.90;65.10;;;;;;5011693;28;20460;-71
2023/04/19 08:41:44;;;;;;;11.20;9.77;;;14.00;63.60;;;;;;5011467;28;20893;-71
2023/04/19 08:44:13;;;;;;;10.67;9.77;;;13.80;62.50;;;;;;5009748;28;20524;-71
2023/04/19 08:46:41;;;;;;;12.13;9.40;;;13.70;65.20;;;;;;5011738;28;20455;-71
2023/04/19 08:49:09;;;;;;;11.53;10.33;;;13.80;64.20;;;;;;5011540;28;20451;-71
2023/04/19 08:51:38;;;;;;;10.53;9.43;;;13.80;64.30;;;;;;5011879;28;20477;-70
2023/04/19 08:54:07;;;;;;;11.10;10.10;;;13.90;65.10;;;;;;5011163;28;20468;-71
2023/04/19 08:56:34;;;;;;;10.63;9.53;;;13.90;65.00;;;;;;5011560;28;20959;-70
2023/04/19 08:59:01;;;;;;;12.00;10.80;;;13.70;63.70;;;;;;5011616;28;20539;-71
2023/04/19 09:01:27;;;;;;;16.37;11.50;;;13.30;65.00;;;;;;5009700;28;20576;-69
2023/04/19 09:03:54;;;;;;;15.97;12.10;;;13.10;68.90;;;;;;5011454;28;20496;-70
2023/04/19 09:06:21;;;;;;;12.93;11.50;;;12.80;70.40;;;;;;5011760;28;20446;-70
2023/04/19 09:08:51;;;;;;;12.93;11.63;;;12.70;72.40;;;;;;5012409;28;20807;-70
2023/04/19 09:11:19;;;;;;;14.63;12.20;;;12.70;71.10;;;;;;5013911;28;20481;-70
2023/04/19 09:13:45;;;;;;;15.60;12.20;;;12.90;73.00;;;;;;5020900;28;20454;-70
2023/04/19 09:16:27;;;;;;;13.60;12.03;;;13.00;71.30;;;;;;5024010;28;20461;-70
2023/04/19 09:18:55;;;;;;;15.13;12.43;;;12.80;72.10;;;;;;5006687;28;20465;-70
2023/04/19 09:21:28;;;;;;;12.37;11.07;;;12.80;72.00;;;;;;4994929;28;20976;-70
2023/04/19 09:23:56;;;;;;;13.20;11.00;;;12.80;70.50;;;;;;4993614;28;20487;-70
2023/04/19 09:26:23;;;;;;;13.50;11.40;;;13.00;70.90;;;;;;4993858;28;20456;-71
2023/04/19 09:28:57;;;;;;;14.10;11.17;;;12.90;68.90;;;;;;4994431;28;20518;-71
2023/04/19 09:31:24;;;;;;;13.77;12.23;;;13.30;70.50;;;;;;4992693;28;21021;-71
2023/04/19 09:33:53;;;;;;;12.20;11.00;;;13.60;69.00;;;;;;4997227;28;20456;-71
2023/04/19 09:36:30;;;;;;;14.47;11.57;;;13.90;66.40;;;;;;5014729;28;20812;-73
2023/04/19 09:38:59;;;;;;;14.37;10.93;;;14.40;64.70;;;;;;5013161;28;20455;-72
2023/04/19 09:41:26;;;;;;;13.13;11.43;;;14.60;63.80;;;;;;5015014;28;20466;-72
2023/04/19 09:44:09;;;;;;;12.50;10.43;;;14.80;60.60;;;;;;5012474;28;20482;-71
2023/04/19 09:46:36;;;;;;;11.80;10.60;;;15.10;62.40;;;;;;5011743;28;20457;-72
2023/04/19 09:49:18;;;;;;;10.80;9.20;;;15.50;58.60;;;;;;5011229;28;20456;-71
2023/04/19 09:51:47;;;;;;;11.40;10.20;;;15.40;60.30;;;;;;5009967;28;20562;-72
2023/04/19 09:54:17;;;;;;;11.37;10.17;;;15.60;61.20;;;;;;5011016;28;20445;-71
2023/04/19 09:56:44;;;;;;;12.07;10.87;;;16.20;59.70;;;;;;5001326;28;20456;-71
2023/04/19 09:59:11;;;;;;;11.00;9.90;;;16.40;56.50;;;;;;4991676;28;20830;-72
2023/04/19 10:01:40;;;;;;;11.23;10.10;;;15.50;55.90;;;;;;4991781;28;20553;-70
2023/04/19 10:04:07;;;;;;;9.50;8.60;;;14.40;58.50;;;;;;4991021;28;20521;-70
2023/04/19 10:06:35;;;;;;;10.10;9.10;;;13.90;61.30;;;;;;4991664;28;20453;-71
2023/04/19 10:09:03;;;;;;;10.90;9.80;;;13.40;63.50;;;;;;4991719;28;20453;-71
2023/04/19 10:11:37;;;;;;;9.90;8.90;;;13.30;65.70;;;;;;5008337;28;20570;-70
2023/04/19 10:14:06;;;;;;;12.83;10.50;;;13.10;65.10;;;;;;5009840;28;20451;-71
2023/04/19 10:16:33;;;;;;;11.33;9.90;;;13.00;66.30;;;;;;5010772;28;20965;-71
2023/04/19 10:19:02;;;;;;;12.90;10.03;;;12.80;67.10;;;;;;5011353;28;20457;-70
2023/04/19 10:21:29;;;;;;;11.13;10.03;;;12.80;67.90;;;;;;5011155;28;20462;-71
2023/04/19 10:23:58;;;;;;;11.63;10.53;;;12.80;65.30;;;;;;5006820;28;20505;-71
2023/04/19 10:26:25;;;;;;;11.07;10.07;;;12.80;68.20;;;;;;4991883;28;20452;-71
2023/04/19 10:28:54;;;;;;;11.73;9.97;;;13.00;69.80;;;;;;4994661;28;20467;-71
2023/04/19 10:31:22;;;;;;;11.30;10.10;;;13.10;66.00;;;;;;4994930;28;20482;-70
2023/04/19 10:33:49;;;;;;;11.43;10.10;;;12.80;65.90;;;;;;4994528;28;20999;-71
2023/04/19 10:36:17;;;;;;;12.70;10.87;;;12.60;68.90;;;;;;4994743;28;20450;-71
2023/04/19 10:38:46;;;;;;;15.10;10.80;;;12.70;69.80;;;;;;4994451;28;20547;-71
2023/04/19 10:41:14;;;;;;;12.77;10.63;;;12.70;67.50;;;;;;5005314;28;20493;-71
2023/04/19 10:43:43;;;;;;;10.93;9.87;;;12.90;68.50;;;;;;5013602;28;20489;-71
2023/04/19 10:46:15;;;;;;;11.30;10.23;;;13.00;66.80;;;;;;5014057;28;20978;-72
2023/04/19 10:48:53;;;;;;;11.50;9.70;;;13.20;66.70;;;;;;5013819;28;20545;-71
2023/04/19 10:51:21;;;;;;;11.70;10.53;;;13.50;67.50;;;;;;5013694;28;20482;-72
2023/04/19 10:53:50;;;;;;;11.50;10.33;;;13.80;65.10;;;;;;5013247;28;20808;-70
2023/04/19 10:56:19;;;;;;;11.33;10.23;;;13.50;64.70;;;;;;5003680;28;20796;-71
2023/04/19 10:59:20;;;;;;;12.23;10.40;;;13.10;66.90;;;;;;4994544;28;20467;-70
2023/04/19 11:01:53;;;;;;;11.97;10.77;;;12.90;69.70;;;;;;4994220;28;20479;-70
2023/04/19 11:04:22;;;;;;;12.97;10.30;;;12.70;70.60;;;;;;4993854;28;20520;-71
2023/04/19 11:07:01;;;;;;;11.83;10.63;;;12.50;72.90;;;;;;4994232;28;20442;-70
2023/04/19 11:09:30;;;;;;;12.23;10.43;;;12.40;73.20;;;;;;4995026;28;20956;-70
2023/04/19 11:11:59;;;;;;;14.63;11.60;;;12.20;75.50;;;;;;5012992;28;20489;-70
2023/04/19 11:14:27;;;;;;;12.57;10.97;;;12.20;76.90;;;;;;5012696;28;20465;-71
2023/04/19 11:16:55;;;;;;;12.80;11.50;;;12.00;78.20;;;;;;5013371;28;20445;-70
2023/04/19 11:19:22;;;;;;;16.10;12.37;;;11.90;79.00;;;;;;5013169;28;21011;-70
2023/04/19 11:21:49;;;;;;;19.97;11.50;;;11.70;78.80;;;;;;5013032;28;20560;-70
2023/04/19 11:24:17;;;;;;;14.57;11.63;;;11.70;79.80;;;;;;5012703;28;20488;-71
2023/04/19 11:26:44;;;;;;;15.57;13.97;;;11.70;80.30;;;;;;5004638;28;21109;-70
2023/04/19 11:29:11;;;;;;;16.47;13.37;;;11.80;79.80;;;;;;4993358;28;20482;-69
2023/04/19 11:31:38;;;;;;;19.70;14.40;;;11.60;80.10;;;;;;4993504;28;20481;-69
2023/04/19 11:34:06;;;;;;;14.93;13.10;;;11.40;81.60;;;;;;4993039;28;20441;-71
2023/04/19 11:36:35;;;;;;;17.60;14.93;;;11.30;82.40;;;;;;4993080;28;20458;-70
2023/04/19 11:39:05;;;;;;;16.33;14.63;;;11.10;84.20;;;;;;4992022;28;20951;-70
2023/04/19 11:41:39;;;;;;;18.53;15.00;;;11.00;87.10;;;;;;4992909;28;20857;-70
2023/04/19 11:44:13;;;;;;;20.70;17.20;;;10.70;90.70;;;;;;4993160;28;20476;-70
2023/04/19 11:46:40;;;;;;;22.63;15.83;;;10.50;91.70;;;;;;5008509;28;20442;-70
2023/04/19 11:49:08;;;;;;;21.83;18.20;;;10.40;92.90;;;;;;5012631;28;20454;-70
2023/04/19 11:51:35;;;;;;;21.93;18.10;;;10.40;93.10;;;;;;5012473;28;20485;-70
2023/04/19 11:54:01;;;;;;;21.30;17.43;;;10.30;93.40;;;;;;5012144;28;20456;-70
2023/04/19 11:56:28;;;;;;;23.60;18.47;;;10.30;93.70;;;;;;5011564;28;20450;-70
2023/04/19 11:58:57;;;;;;;26.07;22.20;;;10.20;94.10;;;;;;5012276;28;20472;-71
2023/04/19 12:01:24;;;;;;;30.50;24.43;;;10.10;94.60;;;;;;5012370;28;20469;-71
2023/04/19 12:03:53;;;;;;;22.07;19.60;;;10.10;94.60;;;;;;5005884;28;20479;-70
2023/04/19 12:06:24;;;;;;;21.83;18.03;;;10.10;94.40;;;;;;5001490;28;20446;-69
2023/04/19 12:08:52;;;;;;;22.63;18.80;;;10.00;94.20;;;;;;5001368;28;20511;-69
2023/04/19 12:11:23;;;;;;;28.20;21.90;;;10.00;94.50;;;;;;5001263;28;20506;-71
2023/04/19 12:14:07;;;;;;;23.90;19.07;;;10.00;94.80;;;;;;4994623;28;20459;-71
2023/04/19 12:16:34;;;;;;;26.47;18.70;;;10.00;94.90;;;;;;4999664;28;20553;-69
2023/04/19 12:19:12;;;;;;;21.80;18.47;;;9.90;94.60;;;;;;5010884;28;20453;-70
2023/04/19 12:21:41;;;;;;;28.13;20.03;;;9.80;94.50;;;;;;5011818;28;20480;-70
2023/04/19 12:24:08;;;;;;;26.67;20.80;;;9.70;94.00;;;;;;5010849;28;20484;-68
2023/04/19 12:26:35;;;;;;;22.00;18.47;;;9.70;93.90;;;;;;5006534;28;20841;-68
2023/04/19 12:29:03;;;;;;;24.13;18.90;;;9.70;93.90;;;;;;5012086;28;20446;-69
2023/04/19 12:31:32;;;;;;;23.70;17.93;;;9.70;94.10;;;;;;4999723;28;20467;-69
2023/04/19 12:33:59;;;;;;;25.10;19.23;;;9.80;93.70;;;;;;4991846;28;20945;-69
2023/04/19 12:36:26;;;;;;;24.77;19.53;;;9.80;94.00;;;;;;4992041;28;20456;-68